sensor_id;sensor_type;location;lat;lon;timestamp;temperature;humidity
5429;DHT22;2737;52.386;9.980;2022-08-19T00:02:02;19.20;99.90
5429;DHT22;2737;52.386;9.980;2022-08-19T00:04:33;19.20;99.90
5429;DHT22;2737;52.386;9.980;2022-08-19T00:07:04;19.10;99.90
5429;DHT22;2737;52.386;9.980;2022-08-19T00:09:31;19.10;99.90
5429;DHT22;2737;52.386;9.980;2022-08-19T00:12:00;19.10;99.90
5429;DHT22;2737;52.386;9.980;2022-08-19T00:14:29;19.10;99.90
5429;DHT22;2737;52.386;9.980;2022-08-19T00:16:57;19.00;99.90
5429;DHT22;2737;52.386;9.980;2022-08-19T00:19:24;19.00;99.90
5429;DHT22;2737;52.386;9.980;2022-08-19T00:21:51;19.00;99.90
5429;DHT22;2737;52.386;9.980;2022-08-19T00:24:22;19.00;99.90
5429;DHT22;2737;52.386;9.980;2022-08-19T00:26:49;19.00;99.90
5429;DHT22;2737;52.386;9.980;2022-08-19T00:29:20;18.90;99.90
5429;DHT22;2737;52.386;9.980;2022-08-19T00:31:48;18.90;99.90
5429;DHT22;2737;52.386;9.980;2022-08-19T00:34:15;18.90;99.90
5429;DHT22;2737;52.386;9.980;2022-08-19T00:36:43;18.80;99.90
5429;DHT22;2737;52.386;9.980;2022-08-19T00:39:11;18.80;99.90
5429;DHT22;2737;52.386;9.980;2022-08-19T00:41:39;18.80;99.90
5429;DHT22;2737;52.386;9.980;2022-08-19T00:44:09;18.80;99.90
5429;DHT22;2737;52.386;9.980;2022-08-19T00:46:40;18.80;99.90
5429;DHT22;2737;52.386;9.980;2022-08-19T00:49:11;18.80;99.90
5429;DHT22;2737;52.386;9.980;2022-08-19T00:51:41;18.80;99.90
5429;DHT22;2737;52.386;9.980;2022-08-19T00:54:09;18.80;99.90
5429;DHT22;2737;52.386;9.980;2022-08-19T00:56:36;18.70;99.90
5429;DHT22;2737;52.386;9.980;2022-08-19T00:59:04;18.70;99.90
5429;DHT22;2737;52.386;9.980;2022-08-19T01:01:35;18.70;99.90
5429;DHT22;2737;52.386;9.980;2022-08-19T01:04:03;18.70;99.90
5429;DHT22;2737;52.386;9.980;2022-08-19T01:06:31;18.70;99.90
5429;DHT22;2737;52.386;9.980;2022-08-19T01:08:59;18.60;99.90
5429;DHT22;2737;52.386;9.980;2022-08-19T01:11:27;18.60;99.90
5429;DHT22;2737;52.386;9.980;2022-08-19T01:13:54;18.50;99.90
5429;DHT22;2737;52.386;9.980;2022-08-19T01:16:25;18.50;99.90
5429;DHT22;2737;52.386;9.980;2022-08-19T01:18:53;18.50;99.90
5429;DHT22;2737;52.386;9.980;2022-08-19T01:21:26;18.50;99.90
5429;DHT22;2737;52.386;9.980;2022-08-19T01:23:57;18.40;99.90
5429;DHT22;2737;52.386;9.980;2022-08-19T01:26:25;18.40;99.90
5429;DHT22;2737;52.386;9.980;2022-08-19T01:28:55;18.40;99.90
5429;DHT22;2737;52.386;9.980;2022-08-19T01:31:25;18.40;99.90
5429;DHT22;2737;52.386;9.980;2022-08-19T01:33:57;18.40;99.90
5429;DHT22;2737;52.386;9.980;2022-08-19T01:36:27;18.50;99.90
5429;DHT22;2737;52.386;9.980;2022-08-19T01:38:57;18.50;99.90
5429;DHT22;2737;52.386;9.980;2022-08-19T01:41:25;18.40;99.90
5429;DHT22;2737;52.386;9.980;2022-08-19T01:43:53;18.40;99.90
5429;DHT22;2737;52.386;9.980;2022-08-19T01:46:21;18.50;99.90
5429;DHT22;2737;52.386;9.980;2022-08-19T01:48:48;18.40;99.90
5429;DHT22;2737;52.386;9.980;2022-08-19T01:51:15;18.40;99.90
5429;DHT22;2737;52.386;9.980;2022-08-19T01:53:47;18.40;99.90
5429;DHT22;2737;52.386;9.980;2022-08-19T01:56:16;18.30;99.90
5429;DHT22;2737;52.386;9.980;2022-08-19T01:58:46;18.30;99.90
5429;DHT22;2737;52.386;9.980;2022-08-19T02:01:16;18.30;99.90
5429;DHT22;2737;52.386;9.980;2022-08-19T02:03:43;18.30;99.90
5429;DHT22;2737;52.386;9.980;2022-08-19T02:06:10;18.20;99.90
5429;DHT22;2737;52.386;9.980;2022-08-19T02:08:39;18.30;99.90
5429;DHT22;2737;52.386;9.980;2022-08-19T02:11:07;18.20;99.90
5429;DHT22;2737;52.386;9.980;2022-08-19T02:13:35;18.10;99.90
5429;DHT22;2737;52.386;9.980;2022-08-19T02:16:03;18.10;99.90
5429;DHT22;2737;52.386;9.980;2022-08-19T02:18:30;18.10;99.90
5429;DHT22;2737;52.386;9.980;2022-08-19T02:20:57;18.10;99.90
5429;DHT22;2737;52.386;9.980;2022-08-19T02:23:24;18.10;99.90
5429;DHT22;2737;52.386;9.980;2022-08-19T02:25:52;18.10;99.90
5429;DHT22;2737;52.386;9.980;2022-08-19T02:28:19;18.00;99.90
5429;DHT22;2737;52.386;9.980;2022-08-19T02:30:48;18.00;99.90
5429;DHT22;2737;52.386;9.980;2022-08-19T02:33:16;18.00;99.90
5429;DHT22;2737;52.386;9.980;2022-08-19T02:35:43;18.00;99.90
5429;DHT22;2737;52.386;9.980;2022-08-19T02:38:11;17.90;99.90
5429;DHT22;2737;52.386;9.980;2022-08-19T02:40:55;17.90;99.90
5429;DHT22;2737;52.386;9.980;2022-08-19T02:43:22;17.90;99.90
5429;DHT22;2737;52.386;9.980;2022-08-19T02:45:52;17.90;99.90
5429;DHT22;2737;52.386;9.980;2022-08-19T02:48:20;18.00;99.90
5429;DHT22;2737;52.386;9.980;2022-08-19T02:50:49;18.00;99.90
5429;DHT22;2737;52.386;9.980;2022-08-19T02:53:21;17.90;99.90
5429;DHT22;2737;52.386;9.980;2022-08-19T02:55:49;17.90;99.90
5429;DHT22;2737;52.386;9.980;2022-08-19T02:58:17;17.90;99.90
5429;DHT22;2737;52.386;9.980;2022-08-19T03:00:47;17.90;99.90
5429;DHT22;2737;52.386;9.980;2022-08-19T03:03:16;17.90;99.90
5429;DHT22;2737;52.386;9.980;2022-08-19T03:05:45;18.00;99.90
5429;DHT22;2737;52.386;9.980;2022-08-19T03:08:13;18.00;99.90
5429;DHT22;2737;52.386;9.980;2022-08-19T03:10:41;18.00;99.90
5429;DHT22;2737;52.386;9.980;2022-08-19T03:13:14;18.00;99.90
5429;DHT22;2737;52.386;9.980;2022-08-19T03:15:42;17.90;99.90
5429;DHT22;2737;52.386;9.980;2022-08-19T03:18:10;17.80;99.90
5429;DHT22;2737;52.386;9.980;2022-08-19T03:20:44;17.80;99.90
5429;DHT22;2737;52.386;9.980;2022-08-19T03:23:12;17.80;99.90
5429;DHT22;2737;52.386;9.980;2022-08-19T03:25:44;17.80;99.90
5429;DHT22;2737;52.386;9.980;2022-08-19T03:28:13;17.80;99.90
5429;DHT22;2737;52.386;9.980;2022-08-19T03:30:41;17.70;99.90
5429;DHT22;2737;52.386;9.980;2022-08-19T03:33:10;17.80;99.90
5429;DHT22;2737;52.386;9.980;2022-08-19T03:35:42;17.70;99.90
5429;DHT22;2737;52.386;9.980;2022-08-19T03:38:10;17.80;99.90
5429;DHT22;2737;52.386;9.980;2022-08-19T03:40:37;17.70;99.90
5429;DHT22;2737;52.386;9.980;2022-08-19T03:43:04;17.70;99.90
5429;DHT22;2737;52.386;9.980;2022-08-19T03:45:32;17.60;99.90
5429;DHT22;2737;52.386;9.980;2022-08-19T03:47:59;17.60;99.90
5429;DHT22;2737;52.386;9.980;2022-08-19T03:50:26;17.50;99.90
5429;DHT22;2737;52.386;9.980;2022-08-19T03:52:54;17.50;99.90
5429;DHT22;2737;52.386;9.980;2022-08-19T03:55:23;17.50;99.90
5429;DHT22;2737;52.386;9.980;2022-08-19T03:57:50;17.40;99.90
5429;DHT22;2737;52.386;9.980;2022-08-19T04:00:17;17.40;99.90
5429;DHT22;2737;52.386;9.980;2022-08-19T04:02:44;17.40;99.90
5429;DHT22;2737;52.386;9.980;2022-08-19T04:05:11;17.40;99.90
5429;DHT22;2737;52.386;9.980;2022-08-19T04:07:39;17.40;99.90
5429;DHT22;2737;52.386;9.980;2022-08-19T04:10:08;17.40;99.90
5429;DHT22;2737;52.386;9.980;2022-08-19T04:12:35;17.40;99.90
5429;DHT22;2737;52.386;9.980;2022-08-19T04:15:03;17.40;99.90
5429;DHT22;2737;52.386;9.980;2022-08-19T04:17:31;17.30;99.90
5429;DHT22;2737;52.386;9.980;2022-08-19T04:19:59;17.30;99.90
5429;DHT22;2737;52.386;9.980;2022-08-19T04:22:26;17.30;99.90
5429;DHT22;2737;52.386;9.980;2022-08-19T04:24:53;17.20;99.90
5429;DHT22;2737;52.386;9.980;2022-08-19T04:27:22;17.20;99.90
5429;DHT22;2737;52.386;9.980;2022-08-19T04:29:49;17.20;99.90
5429;DHT22;2737;52.386;9.980;2022-08-19T04:32:16;17.20;99.90
5429;DHT22;2737;52.386;9.980;2022-08-19T04:34:43;17.30;99.90
5429;DHT22;2737;52.386;9.980;2022-08-19T04:37:10;17.20;99.90
5429;DHT22;2737;52.386;9.980;2022-08-19T04:39:38;17.20;99.90
5429;DHT22;2737;52.386;9.980;2022-08-19T04:42:24;17.20;99.90
5429;DHT22;2737;52.386;9.980;2022-08-19T04:45:09;17.20;99.90
5429;DHT22;2737;52.386;9.980;2022-08-19T04:47:37;17.20;99.90
5429;DHT22;2737;52.386;9.980;2022-08-19T04:50:06;17.20;99.90
5429;DHT22;2737;52.386;9.980;2022-08-19T04:52:33;17.20;99.90
5429;DHT22;2737;52.386;9.980;2022-08-19T04:55:00;17.30;99.90
5429;DHT22;2737;52.386;9.980;2022-08-19T04:57:29;17.20;99.90
5429;DHT22;2737;52.386;9.980;2022-08-19T04:59:56;17.20;99.90
5429;DHT22;2737;52.386;9.980;2022-08-19T05:02:23;17.20;99.90
5429;DHT22;2737;52.386;9.980;2022-08-19T05:04:56;17.30;99.90
5429;DHT22;2737;52.386;9.980;2022-08-19T05:07:24;17.30;99.90
5429;DHT22;2737;52.386;9.980;2022-08-19T05:09:51;17.30;99.90
5429;DHT22;2737;52.386;9.980;2022-08-19T05:12:18;17.30;99.90
5429;DHT22;2737;52.386;9.980;2022-08-19T05:14:47;17.30;99.90
5429;DHT22;2737;52.386;9.980;2022-08-19T05:17:15;17.20;99.90
5429;DHT22;2737;52.386;9.980;2022-08-19T05:19:42;17.20;99.90
5429;DHT22;2737;52.386;9.980;2022-08-19T05:22:26;17.30;99.90
5429;DHT22;2737;52.386;9.980;2022-08-19T05:25:02;17.30;99.90
5429;DHT22;2737;52.386;9.980;2022-08-19T05:27:30;17.30;99.90
5429;DHT22;2737;52.386;9.980;2022-08-19T05:29:59;17.30;99.90
5429;DHT22;2737;52.386;9.980;2022-08-19T05:32:26;17.20;99.90
5429;DHT22;2737;52.386;9.980;2022-08-19T05:34:54;17.20;99.90
5429;DHT22;2737;52.386;9.980;2022-08-19T05:37:21;17.20;99.90
5429;DHT22;2737;52.386;9.980;2022-08-19T05:39:48;17.20;99.90
5429;DHT22;2737;52.386;9.980;2022-08-19T05:42:15;17.20;99.90
5429;DHT22;2737;52.386;9.980;2022-08-19T05:44:44;17.30;99.90
5429;DHT22;2737;52.386;9.980;2022-08-19T05:47:14;17.30;99.90
5429;DHT22;2737;52.386;9.980;2022-08-19T05:49:42;17.40;99.90
5429;DHT22;2737;52.386;9.980;2022-08-19T05:52:11;17.40;99.90
5429;DHT22;2737;52.386;9.980;2022-08-19T05:54:40;17.50;99.90
5429;DHT22;2737;52.386;9.980;2022-08-19T05:57:08;17.50;99.90
5429;DHT22;2737;52.386;9.980;2022-08-19T05:59:36;17.60;99.90
5429;DHT22;2737;52.386;9.980;2022-08-19T06:02:05;17.60;99.90
5429;DHT22;2737;52.386;9.980;2022-08-19T06:04:34;17.70;99.90
5429;DHT22;2737;52.386;9.980;2022-08-19T06:07:01;17.60;99.90
5429;DHT22;2737;52.386;9.980;2022-08-19T06:09:29;17.50;99.90
5429;DHT22;2737;52.386;9.980;2022-08-19T06:11:58;17.50;99.90
5429;DHT22;2737;52.386;9.980;2022-08-19T06:14:27;17.50;99.90
5429;DHT22;2737;52.386;9.980;2022-08-19T06:16:55;17.50;99.90
5429;DHT22;2737;52.386;9.980;2022-08-19T06:19:23;17.60;99.90
5429;DHT22;2737;52.386;9.980;2022-08-19T06:21:53;17.60;99.90
5429;DHT22;2737;52.386;9.980;2022-08-19T06:24:23;17.60;99.90
5429;DHT22;2737;52.386;9.980;2022-08-19T06:26:51;17.60;99.90
5429;DHT22;2737;52.386;9.980;2022-08-19T06:29:22;17.70;99.90
5429;DHT22;2737;52.386;9.980;2022-08-19T06:31:51;17.70;99.90
5429;DHT22;2737;52.386;9.980;2022-08-19T06:34:19;17.80;99.90
5429;DHT22;2737;52.386;9.980;2022-08-19T06:36:48;17.80;99.90
5429;DHT22;2737;52.386;9.980;2022-08-19T06:39:20;17.90;99.90
5429;DHT22;2737;52.386;9.980;2022-08-19T06:41:49;17.80;99.90
5429;DHT22;2737;52.386;9.980;2022-08-19T06:44:17;17.90;99.90
5429;DHT22;2737;52.386;9.980;2022-08-19T06:46:45;17.90;99.90
5429;DHT22;2737;52.386;9.980;2022-08-19T06:49:14;17.90;99.90
5429;DHT22;2737;52.386;9.980;2022-08-19T06:51:42;17.80;99.90
5429;DHT22;2737;52.386;9.980;2022-08-19T06:54:10;17.80;99.90
5429;DHT22;2737;52.386;9.980;2022-08-19T06:56:38;17.80;99.90
5429;DHT22;2737;52.386;9.980;2022-08-19T06:59:07;18.00;99.90
5429;DHT22;2737;52.386;9.980;2022-08-19T07:01:36;18.00;99.90
5429;DHT22;2737;52.386;9.980;2022-08-19T07:04:05;18.10;99.90
5429;DHT22;2737;52.386;9.980;2022-08-19T07:06:32;18.10;99.90
5429;DHT22;2737;52.386;9.980;2022-08-19T07:08:59;18.20;99.90
5429;DHT22;2737;52.386;9.980;2022-08-19T07:11:26;18.10;99.90
5429;DHT22;2737;52.386;9.980;2022-08-19T07:13:55;18.20;99.90
5429;DHT22;2737;52.386;9.980;2022-08-19T07:16:22;18.20;99.90
5429;DHT22;2737;52.386;9.980;2022-08-19T07:18:51;18.30;99.90
5429;DHT22;2737;52.386;9.980;2022-08-19T07:21:22;18.20;99.90
5429;DHT22;2737;52.386;9.980;2022-08-19T07:23:50;18.20;99.90
5429;DHT22;2737;52.386;9.980;2022-08-19T07:26:21;18.20;99.90
5429;DHT22;2737;52.386;9.980;2022-08-19T07:28:49;18.30;99.90
5429;DHT22;2737;52.386;9.980;2022-08-19T07:31:19;18.30;99.90
5429;DHT22;2737;52.386;9.980;2022-08-19T07:33:47;18.40;99.90
5429;DHT22;2737;52.386;9.980;2022-08-19T07:36:20;18.50;99.90
5429;DHT22;2737;52.386;9.980;2022-08-19T07:38:50;18.60;99.90
5429;DHT22;2737;52.386;9.980;2022-08-19T07:41:19;18.70;99.90
5429;DHT22;2737;52.386;9.980;2022-08-19T07:43:47;18.70;99.90
5429;DHT22;2737;52.386;9.980;2022-08-19T07:46:15;18.70;99.90
5429;DHT22;2737;52.386;9.980;2022-08-19T07:48:44;18.70;99.90
5429;DHT22;2737;52.386;9.980;2022-08-19T07:51:13;18.70;99.90
5429;DHT22;2737;52.386;9.980;2022-08-19T07:53:40;18.90;99.90
5429;DHT22;2737;52.386;9.980;2022-08-19T07:56:08;19.00;99.90
5429;DHT22;2737;52.386;9.980;2022-08-19T07:58:37;18.90;99.90
5429;DHT22;2737;52.386;9.980;2022-08-19T08:01:08;18.80;99.90
5429;DHT22;2737;52.386;9.980;2022-08-19T08:03:36;18.90;99.90
5429;DHT22;2737;52.386;9.980;2022-08-19T08:06:23;18.90;99.90
5429;DHT22;2737;52.386;9.980;2022-08-19T08:09:08;19.00;99.90
5429;DHT22;2737;52.386;9.980;2022-08-19T08:11:47;19.10;99.90
5429;DHT22;2737;52.386;9.980;2022-08-19T08:14:16;19.10;99.90
5429;DHT22;2737;52.386;9.980;2022-08-19T08:16:43;19.20;99.90
5429;DHT22;2737;52.386;9.980;2022-08-19T08:19:11;19.40;99.90
5429;DHT22;2737;52.386;9.980;2022-08-19T08:21:42;19.40;99.90
5429;DHT22;2737;52.386;9.980;2022-08-19T08:24:10;19.30;99.90
5429;DHT22;2737;52.386;9.980;2022-08-19T08:26:38;19.30;99.90
5429;DHT22;2737;52.386;9.980;2022-08-19T08:29:06;19.40;99.90
5429;DHT22;2737;52.386;9.980;2022-08-19T08:31:39;19.50;99.90
5429;DHT22;2737;52.386;9.980;2022-08-19T08:34:06;19.40;99.90
5429;DHT22;2737;52.386;9.980;2022-08-19T08:36:36;19.40;99.90
5429;DHT22;2737;52.386;9.980;2022-08-19T08:39:08;19.60;99.90
5429;DHT22;2737;52.386;9.980;2022-08-19T08:41:43;19.70;99.90
5429;DHT22;2737;52.386;9.980;2022-08-19T08:44:15;19.80;99.90
5429;DHT22;2737;52.386;9.980;2022-08-19T08:46:47;19.80;99.90
5429;DHT22;2737;52.386;9.980;2022-08-19T08:49:24;19.70;99.90
5429;DHT22;2737;52.386;9.980;2022-08-19T08:51:59;19.80;99.90
5429;DHT22;2737;52.386;9.980;2022-08-19T08:54:33;19.50;99.90
5429;DHT22;2737;52.386;9.980;2022-08-19T08:57:04;19.60;99.90
5429;DHT22;2737;52.386;9.980;2022-08-19T08:59:36;19.70;99.90
5429;DHT22;2737;52.386;9.980;2022-08-19T09:02:04;19.90;99.90
5429;DHT22;2737;52.386;9.980;2022-08-19T09:04:31;20.00;99.90
5429;DHT22;2737;52.386;9.980;2022-08-19T09:07:14;20.10;99.90
5429;DHT22;2737;52.386;9.980;2022-08-19T09:09:48;20.30;99.90
5429;DHT22;2737;52.386;9.980;2022-08-19T09:12:22;20.50;99.90
5429;DHT22;2737;52.386;9.980;2022-08-19T09:14:53;20.60;99.90
5429;DHT22;2737;52.386;9.980;2022-08-19T09:17:24;20.40;99.90
5429;DHT22;2737;52.386;9.980;2022-08-19T09:19:57;20.60;99.90
5429;DHT22;2737;52.386;9.980;2022-08-19T09:22:26;20.50;99.90
5429;DHT22;2737;52.386;9.980;2022-08-19T09:24:55;20.80;99.90
5429;DHT22;2737;52.386;9.980;2022-08-19T09:27:23;20.80;99.90
5429;DHT22;2737;52.386;9.980;2022-08-19T09:29:50;20.70;99.90
5429;DHT22;2737;52.386;9.980;2022-08-19T09:32:19;20.80;99.90
5429;DHT22;2737;52.386;9.980;2022-08-19T09:34:46;20.70;99.90
5429;DHT22;2737;52.386;9.980;2022-08-19T09:37:14;20.50;99.90
5429;DHT22;2737;52.386;9.980;2022-08-19T09:39:41;20.60;99.90
5429;DHT22;2737;52.386;9.980;2022-08-19T09:42:10;20.90;99.90
5429;DHT22;2737;52.386;9.980;2022-08-19T09:44:39;21.10;99.90
5429;DHT22;2737;52.386;9.980;2022-08-19T09:47:07;21.10;99.90
5429;DHT22;2737;52.386;9.980;2022-08-19T09:49:35;21.10;99.90
5429;DHT22;2737;52.386;9.980;2022-08-19T09:52:03;21.10;99.90
5429;DHT22;2737;52.386;9.980;2022-08-19T09:54:31;21.00;99.90
5429;DHT22;2737;52.386;9.980;2022-08-19T09:56:58;20.90;99.90
5429;DHT22;2737;52.386;9.980;2022-08-19T09:59:27;20.70;99.90
5429;DHT22;2737;52.386;9.980;2022-08-19T10:01:55;21.00;99.90
5429;DHT22;2737;52.386;9.980;2022-08-19T10:04:22;21.10;99.90
5429;DHT22;2737;52.386;9.980;2022-08-19T10:07:10;21.10;99.90
5429;DHT22;2737;52.386;9.980;2022-08-19T10:09:37;21.10;99.90
5429;DHT22;2737;52.386;9.980;2022-08-19T10:12:07;20.70;99.90
5429;DHT22;2737;52.386;9.980;2022-08-19T10:14:36;20.90;99.90
5429;DHT22;2737;52.386;9.980;2022-08-19T10:17:03;21.30;99.90
5429;DHT22;2737;52.386;9.980;2022-08-19T10:19:30;21.20;99.90
5429;DHT22;2737;52.386;9.980;2022-08-19T10:22:03;21.30;99.90
5429;DHT22;2737;52.386;9.980;2022-08-19T10:24:31;21.50;99.90
5429;DHT22;2737;52.386;9.980;2022-08-19T10:26:59;21.70;99.90
5429;DHT22;2737;52.386;9.980;2022-08-19T10:29:29;21.70;99.90
5429;DHT22;2737;52.386;9.980;2022-08-19T10:31:59;21.80;99.90
5429;DHT22;2737;52.386;9.980;2022-08-19T10:34:28;22.00;99.90
5429;DHT22;2737;52.386;9.980;2022-08-19T10:36:56;22.30;99.90
5429;DHT22;2737;52.386;9.980;2022-08-19T10:39:24;22.30;99.90
5429;DHT22;2737;52.386;9.980;2022-08-19T10:41:51;22.50;99.90
5429;DHT22;2737;52.386;9.980;2022-08-19T10:44:18;22.70;99.90
5429;DHT22;2737;52.386;9.980;2022-08-19T10:46:47;22.50;99.90
5429;DHT22;2737;52.386;9.980;2022-08-19T10:49:15;22.70;99.90
5429;DHT22;2737;52.386;9.980;2022-08-19T10:51:42;22.90;99.90
5429;DHT22;2737;52.386;9.980;2022-08-19T10:54:27;22.90;99.90
5429;DHT22;2737;52.386;9.980;2022-08-19T10:57:08;22.50;99.90
5429;DHT22;2737;52.386;9.980;2022-08-19T10:59:35;22.70;99.90
5429;DHT22;2737;52.386;9.980;2022-08-19T11:02:04;22.70;99.90
5429;DHT22;2737;52.386;9.980;2022-08-19T11:04:33;23.00;99.90
5429;DHT22;2737;52.386;9.980;2022-08-19T11:07:00;23.30;99.90
5429;DHT22;2737;52.386;9.980;2022-08-19T11:09:27;23.10;99.90
5429;DHT22;2737;52.386;9.980;2022-08-19T11:11:55;22.90;99.90
5429;DHT22;2737;52.386;9.980;2022-08-19T11:14:23;22.50;99.90
5429;DHT22;2737;52.386;9.980;2022-08-19T11:16:51;22.60;99.90
5429;DHT22;2737;52.386;9.980;2022-08-19T11:19:22;22.40;99.90
5429;DHT22;2737;52.386;9.980;2022-08-19T11:21:51;22.60;99.90
5429;DHT22;2737;52.386;9.980;2022-08-19T11:24:21;22.90;99.90
5429;DHT22;2737;52.386;9.980;2022-08-19T11:26:50;22.90;99.90
5429;DHT22;2737;52.386;9.980;2022-08-19T11:29:20;23.00;99.90
5429;DHT22;2737;52.386;9.980;2022-08-19T11:31:48;23.10;99.90
5429;DHT22;2737;52.386;9.980;2022-08-19T11:34:18;22.90;99.90
5429;DHT22;2737;52.386;9.980;2022-08-19T11:36:46;22.70;99.90
5429;DHT22;2737;52.386;9.980;2022-08-19T11:39:18;22.80;99.90
5429;DHT22;2737;52.386;9.980;2022-08-19T11:41:46;22.80;99.90
5429;DHT22;2737;52.386;9.980;2022-08-19T11:44:13;22.60;99.90
5429;DHT22;2737;52.386;9.980;2022-08-19T11:46:42;22.80;99.90
5429;DHT22;2737;52.386;9.980;2022-08-19T11:49:12;22.80;99.90
5429;DHT22;2737;52.386;9.980;2022-08-19T11:51:40;23.00;99.90
5429;DHT22;2737;52.386;9.980;2022-08-19T11:54:09;23.10;99.90
5429;DHT22;2737;52.386;9.980;2022-08-19T11:56:38;23.10;99.90
5429;DHT22;2737;52.386;9.980;2022-08-19T11:59:06;23.20;99.90
5429;DHT22;2737;52.386;9.980;2022-08-19T12:01:33;23.30;99.90
5429;DHT22;2737;52.386;9.980;2022-08-19T12:04:01;23.50;99.90
5429;DHT22;2737;52.386;9.980;2022-08-19T12:06:31;23.60;99.90
5429;DHT22;2737;52.386;9.980;2022-08-19T12:09:02;23.60;99.90
5429;DHT22;2737;52.386;9.980;2022-08-19T12:11:29;23.40;99.90
5429;DHT22;2737;52.386;9.980;2022-08-19T12:14:00;23.50;99.90
5429;DHT22;2737;52.386;9.980;2022-08-19T12:16:29;23.60;99.90
5429;DHT22;2737;52.386;9.980;2022-08-19T12:18:58;23.50;99.90
5429;DHT22;2737;52.386;9.980;2022-08-19T12:21:29;23.50;99.90
5429;DHT22;2737;52.386;9.980;2022-08-19T12:23:58;23.50;99.90
5429;DHT22;2737;52.386;9.980;2022-08-19T12:26:27;23.70;99.90
5429;DHT22;2737;52.386;9.980;2022-08-19T12:28:54;23.80;99.90
5429;DHT22;2737;52.386;9.980;2022-08-19T12:31:23;23.70;99.90
5429;DHT22;2737;52.386;9.980;2022-08-19T12:33:50;23.70;99.90
5429;DHT22;2737;52.386;9.980;2022-08-19T12:36:17;23.80;99.90
5429;DHT22;2737;52.386;9.980;2022-08-19T12:38:45;23.80;99.90
5429;DHT22;2737;52.386;9.980;2022-08-19T12:41:14;23.80;99.90
5429;DHT22;2737;52.386;9.980;2022-08-19T12:43:43;23.70;99.90
5429;DHT22;2737;52.386;9.980;2022-08-19T12:46:11;23.90;99.90
5429;DHT22;2737;52.386;9.980;2022-08-19T12:48:41;23.80;99.90
5429;DHT22;2737;52.386;9.980;2022-08-19T12:51:11;23.70;99.90
5429;DHT22;2737;52.386;9.980;2022-08-19T12:53:39;23.90;99.90
5429;DHT22;2737;52.386;9.980;2022-08-19T12:56:07;23.70;99.90
5429;DHT22;2737;52.386;9.980;2022-08-19T12:58:34;23.80;99.90
5429;DHT22;2737;52.386;9.980;2022-08-19T13:01:06;24.00;99.90
5429;DHT22;2737;52.386;9.980;2022-08-19T13:03:33;24.30;99.90
5429;DHT22;2737;52.386;9.980;2022-08-19T13:06:02;24.40;99.90
5429;DHT22;2737;52.386;9.980;2022-08-19T13:08:29;24.30;99.90
5429;DHT22;2737;52.386;9.980;2022-08-19T13:10:56;24.50;99.90
5429;DHT22;2737;52.386;9.980;2022-08-19T13:13:24;24.70;99.90
5429;DHT22;2737;52.386;9.980;2022-08-19T13:15:51;24.70;99.90
5429;DHT22;2737;52.386;9.980;2022-08-19T13:18:18;24.70;99.90
5429;DHT22;2737;52.386;9.980;2022-08-19T13:20:45;24.80;99.90
5429;DHT22;2737;52.386;9.980;2022-08-19T13:23:14;24.50;99.90
5429;DHT22;2737;52.386;9.980;2022-08-19T13:25:41;24.40;99.90
5429;DHT22;2737;52.386;9.980;2022-08-19T13:28:08;24.70;99.90
5429;DHT22;2737;52.386;9.980;2022-08-19T13:30:35;24.80;99.90
5429;DHT22;2737;52.386;9.980;2022-08-19T13:33:16;24.80;99.90
5429;DHT22;2737;52.386;9.980;2022-08-19T13:35:46;24.70;99.90
5429;DHT22;2737;52.386;9.980;2022-08-19T13:38:23;24.70;99.90
5429;DHT22;2737;52.386;9.980;2022-08-19T13:40:52;24.80;99.90
5429;DHT22;2737;52.386;9.980;2022-08-19T13:43:20;24.80;99.90
5429;DHT22;2737;52.386;9.980;2022-08-19T13:45:49;24.80;99.90
5429;DHT22;2737;52.386;9.980;2022-08-19T13:48:19;25.00;99.90
5429;DHT22;2737;52.386;9.980;2022-08-19T13:50:46;24.70;99.90
5429;DHT22;2737;52.386;9.980;2022-08-19T13:53:14;24.70;99.90
5429;DHT22;2737;52.386;9.980;2022-08-19T13:55:43;24.80;99.90
5429;DHT22;2737;52.386;9.980;2022-08-19T13:58:11;24.90;99.90
5429;DHT22;2737;52.386;9.980;2022-08-19T14:00:42;25.00;99.90
5429;DHT22;2737;52.386;9.980;2022-08-19T14:03:09;25.00;99.90
5429;DHT22;2737;52.386;9.980;2022-08-19T14:05:36;25.10;99.90
5429;DHT22;2737;52.386;9.980;2022-08-19T14:08:04;25.10;99.90
5429;DHT22;2737;52.386;9.980;2022-08-19T14:10:31;25.00;99.90
5429;DHT22;2737;52.386;9.980;2022-08-19T14:13:02;25.20;99.90
5429;DHT22;2737;52.386;9.980;2022-08-19T14:15:30;25.10;99.90
5429;DHT22;2737;52.386;9.980;2022-08-19T14:17:57;25.10;99.90
5429;DHT22;2737;52.386;9.980;2022-08-19T14:20:25;25.10;99.90
5429;DHT22;2737;52.386;9.980;2022-08-19T14:22:52;25.30;99.90
5429;DHT22;2737;52.386;9.980;2022-08-19T14:25:22;25.30;99.90
5429;DHT22;2737;52.386;9.980;2022-08-19T14:27:50;25.20;99.90
5429;DHT22;2737;52.386;9.980;2022-08-19T14:30:21;25.30;99.90
5429;DHT22;2737;52.386;9.980;2022-08-19T14:32:48;25.20;99.90
5429;DHT22;2737;52.386;9.980;2022-08-19T14:35:16;25.10;99.90
5429;DHT22;2737;52.386;9.980;2022-08-19T14:37:45;25.30;99.90
5429;DHT22;2737;52.386;9.980;2022-08-19T14:40:14;25.40;99.90
5429;DHT22;2737;52.386;9.980;2022-08-19T14:42:41;25.40;99.90
5429;DHT22;2737;52.386;9.980;2022-08-19T14:45:10;25.40;99.90
5429;DHT22;2737;52.386;9.980;2022-08-19T14:47:39;25.30;99.90
5429;DHT22;2737;52.386;9.980;2022-08-19T14:50:07;25.30;99.90
5429;DHT22;2737;52.386;9.980;2022-08-19T14:52:34;25.40;99.90
5429;DHT22;2737;52.386;9.980;2022-08-19T14:55:02;25.40;99.90
5429;DHT22;2737;52.386;9.980;2022-08-19T14:57:29;25.40;99.90
5429;DHT22;2737;52.386;9.980;2022-08-19T14:59:56;25.40;99.90
5429;DHT22;2737;52.386;9.980;2022-08-19T15:02:23;25.40;99.90
5429;DHT22;2737;52.386;9.980;2022-08-19T15:04:52;25.50;99.90
5429;DHT22;2737;52.386;9.980;2022-08-19T15:07:21;25.40;99.90
5429;DHT22;2737;52.386;9.980;2022-08-19T15:09:49;25.50;99.90
5429;DHT22;2737;52.386;9.980;2022-08-19T15:12:16;25.60;99.90
5429;DHT22;2737;52.386;9.980;2022-08-19T15:14:45;25.60;99.90
5429;DHT22;2737;52.386;9.980;2022-08-19T15:17:16;25.60;99.90
5429;DHT22;2737;52.386;9.980;2022-08-19T15:19:43;25.80;99.90
5429;DHT22;2737;52.386;9.980;2022-08-19T15:22:12;25.90;99.90
5429;DHT22;2737;52.386;9.980;2022-08-19T15:24:39;26.00;99.90
5429;DHT22;2737;52.386;9.980;2022-08-19T15:27:08;25.60;99.90
5429;DHT22;2737;52.386;9.980;2022-08-19T15:29:35;25.60;99.90
5429;DHT22;2737;52.386;9.980;2022-08-19T15:32:03;25.60;99.90
5429;DHT22;2737;52.386;9.980;2022-08-19T15:34:31;25.60;99.90
5429;DHT22;2737;52.386;9.980;2022-08-19T15:36:59;25.80;99.90
5429;DHT22;2737;52.386;9.980;2022-08-19T15:39:28;25.90;99.90
5429;DHT22;2737;52.386;9.980;2022-08-19T15:41:55;26.00;99.90
5429;DHT22;2737;52.386;9.980;2022-08-19T15:44:26;25.90;99.30
5429;DHT22;2737;52.386;9.980;2022-08-19T15:46:53;25.90;99.50
5429;DHT22;2737;52.386;9.980;2022-08-19T15:49:20;26.00;98.90
5429;DHT22;2737;52.386;9.980;2022-08-19T15:51:48;26.00;99.10
5429;DHT22;2737;52.386;9.980;2022-08-19T15:54:18;26.00;98.70
5429;DHT22;2737;52.386;9.980;2022-08-19T15:56:48;25.80;98.60
5429;DHT22;2737;52.386;9.980;2022-08-19T15:59:33;25.80;98.90
5429;DHT22;2737;52.386;9.980;2022-08-19T16:02:20;25.80;99.10
5429;DHT22;2737;52.386;9.980;2022-08-19T16:05:08;25.90;98.40
5429;DHT22;2737;52.386;9.980;2022-08-19T16:07:53;25.90;99.10
5429;DHT22;2737;52.386;9.980;2022-08-19T16:10:20;25.80;99.60
5429;DHT22;2737;52.386;9.980;2022-08-19T16:12:49;25.80;99.80
5429;DHT22;2737;52.386;9.980;2022-08-19T16:15:16;25.80;99.90